Time;durP1;ratioP1;P1;durP2;ratioP2;P2;SDS_P1;SDS_P2;PMS_P1;PMS_P2;Temp;Humidity;BMP_temperature;BMP_pressure;BME280_temperature;BME280_humidity;BME280_pressure;Samples;Min_cycle;Max_cycle;Signal;HPM_P1;HPM_P2
2023/12/06 00:00:29;;;;;;;59.13;27.80;;;;;;;;;;2080202;28;20478;-83
2023/12/06 00:01:50;;;;;;;55.65;28.73;;;;;;;;;;2073805;28;20049;-84
2023/12/06 00:03:11;;;;;;;61.45;28.40;;;;;;;;;;2077554;28;20037;-84
2023/12/06 00:04:32;;;;;;;57.13;28.60;;;;;;;;;;2081473;28;20013;-84
2023/12/06 00:05:53;;;;;;;52.58;26.77;;;;;;;;;;2076148;28;20118;-84
2023/12/06 00:07:14;;;;;;;59.75;27.70;;;;;;;;;;2096230;28;20484;-84
2023/12/06 00:08:35;;;;;;;55.67;29.13;;;;;;;;;;2088414;28;20032;-84
2023/12/06 00:09:58;;;;;;;53.08;27.80;;;;;;;;;;2082585;28;20017;-84
2023/12/06 00:11:19;;;;;;;64.22;31.48;;;;;;;;;;2082061;28;20041;-84
2023/12/06 00:12:40;;;;;;;59.35;27.75;;;;;;;;;;2089661;28;20040;-84
2023/12/06 00:14:01;;;;;;;53.95;27.90;;;;;;;;;;2080632;28;20037;-84
2023/12/06 00:15:22;;;;;;;58.97;28.70;;;;;;;;;;2082812;28;20037;-84
2023/12/06 00:16:43;;;;;;;64.10;29.63;;;;;;;;;;2078065;28;20053;-84
2023/12/06 00:18:04;;;;;;;56.72;28.60;;;;;;;;;;2080608;28;20400;-84
2023/12/06 00:19:24;;;;;;;56.88;27.13;;;;;;;;;;2072450;28;20030;-84
2023/12/06 00:20:45;;;;;;;60.08;28.20;;;;;;;;;;2072519;28;20057;-84
2023/12/06 00:22:06;;;;;;;53.28;27.90;;;;;;;;;;2080700;28;20405;-84
2023/12/06 00:23:27;;;;;;;56.88;27.70;;;;;;;;;;2080424;28;20034;-84
2023/12/06 00:24:48;;;;;;;53.63;26.33;;;;;;;;;;2080398;28;20030;-84
2023/12/06 00:26:09;;;;;;;62.92;29.52;;;;;;;;;;2082376;28;20445;-84
2023/12/06 00:27:30;;;;;;;59.38;29.23;;;;;;;;;;2077835;28;20030;-84
2023/12/06 00:28:51;;;;;;;58.78;28.80;;;;;;;;;;2080062;28;20022;-84
2023/12/06 00:30:12;;;;;;;62.10;30.55;;;;;;;;;;2082361;28;20021;-84
2023/12/06 00:31:33;;;;;;;55.30;28.05;;;;;;;;;;2080050;28;20117;-84
2023/12/06 00:32:54;;;;;;;54.80;27.42;;;;;;;;;;2081913;28;20029;-84
2023/12/06 00:34:15;;;;;;;60.15;26.77;;;;;;;;;;2079677;28;20457;-84
2023/12/06 00:35:36;;;;;;;59.83;26.70;;;;;;;;;;2085920;28;20055;-84
2023/12/06 00:36:57;;;;;;;61.35;29.63;;;;;;;;;;2069412;28;20100;-84
2023/12/06 00:38:18;;;;;;;52.58;27.48;;;;;;;;;;2075809;28;20042;-84
2023/12/06 00:39:38;;;;;;;55.85;27.80;;;;;;;;;;2072974;28;20486;-84
2023/12/06 00:41:00;;;;;;;61.30;28.38;;;;;;;;;;2079184;28;20049;-85
2023/12/06 00:42:20;;;;;;;63.95;30.30;;;;;;;;;;2079813;28;20034;-84
2023/12/06 00:43:41;;;;;;;60.42;29.65;;;;;;;;;;2082275;28;20041;-84
2023/12/06 00:45:02;;;;;;;63.38;29.55;;;;;;;;;;2070030;28;20034;-84
2023/12/06 00:46:24;;;;;;;64.05;27.98;;;;;;;;;;2072150;28;20454;-84
2023/12/06 00:47:45;;;;;;;56.35;26.77;;;;;;;;;;2078697;28;20099;-84
2023/12/06 00:49:06;;;;;;;65.82;30.55;;;;;;;;;;2074158;28;20446;-84
2023/12/06 00:50:27;;;;;;;63.65;29.08;;;;;;;;;;2067627;28;20113;-84
2023/12/06 00:51:48;;;;;;;56.80;28.95;;;;;;;;;;2078602;28;20473;-85
2023/12/06 00:53:09;;;;;;;68.28;30.17;;;;;;;;;;2071744;28;20030;-84
2023/12/06 00:54:30;;;;;;;60.17;27.75;;;;;;;;;;2070907;28;20053;-85
2023/12/06 00:55:51;;;;;;;61.80;27.85;;;;;;;;;;2078045;28;20037;-84
2023/12/06 00:57:11;;;;;;;61.03;27.83;;;;;;;;;;2082399;28;20033;-83
2023/12/06 00:58:32;;;;;;;58.25;28.60;;;;;;;;;;2076961;28;20104;-82
2023/12/06 00:59:53;;;;;;;57.85;27.05;;;;;;;;;;2077162;28;20037;-84
2023/12/06 01:01:14;;;;;;;68.50;30.63;;;;;;;;;;2080009;28;20041;-83
2023/12/06 01:02:35;;;;;;;59.38;28.45;;;;;;;;;;2078151;28;20033;-84
2023/12/06 01:03:57;;;;;;;59.78;27.95;;;;;;;;;;2083013;28;20033;-83
2023/12/06 01:05:18;;;;;;;61.70;28.38;;;;;;;;;;2079271;28;20033;-84
2023/12/06 01:06:39;;;;;;;62.30;29.55;;;;;;;;;;2085317;28;20033;-84
2023/12/06 01:08:00;;;;;;;59.80;27.40;;;;;;;;;;2089115;28;20457;-84
2023/12/06 01:09:21;;;;;;;63.53;29.50;;;;;;;;;;2088314;28;20037;-84
2023/12/06 01:10:43;;;;;;;68.45;27.73;;;;;;;;;;2080863;28;20025;-84
2023/12/06 01:12:04;;;;;;;59.63;27.50;;;;;;;;;;2080821;28;20029;-84
2023/12/06 01:13:24;;;;;;;63.40;28.60;;;;;;;;;;2083216;28;20037;-84
2023/12/06 01:14:45;;;;;;;58.70;27.40;;;;;;;;;;2088736;28;20439;-84
2023/12/06 01:16:07;;;;;;;62.53;27.00;;;;;;;;;;2086843;28;20029;-83
2023/12/06 01:17:28;;;;;;;54.63;26.92;;;;;;;;;;2090493;28;20033;-84
2023/12/06 01:18:49;;;;;;;58.88;27.65;;;;;;;;;;2089051;28;20089;-84
2023/12/06 01:20:10;;;;;;;68.18;28.48;;;;;;;;;;2087857;28;20057;-84
2023/12/06 01:21:31;;;;;;;65.07;28.25;;;;;;;;;;2072679;28;20100;-84
2023/12/06 01:22:52;;;;;;;69.78;29.85;;;;;;;;;;2076935;28;20026;-84
2023/12/06 01:24:13;;;;;;;63.92;29.40;;;;;;;;;;2072504;28;20398;-84
2023/12/06 01:25:33;;;;;;;57.15;28.50;;;;;;;;;;2073882;28;20033;-83
2023/12/06 01:26:54;;;;;;;62.33;28.17;;;;;;;;;;2077580;28;20025;-84
2023/12/06 01:28:15;;;;;;;58.97;29.65;;;;;;;;;;2079807;28;20030;-83
2023/12/06 01:29:36;;;;;;;66.95;29.30;;;;;;;;;;2081071;28;20081;-84
2023/12/06 01:30:57;;;;;;;64.50;28.92;;;;;;;;;;2076158;28;20032;-84
2023/12/06 01:32:18;;;;;;;59.38;27.70;;;;;;;;;;2077916;28;20053;-83
2023/12/06 01:33:39;;;;;;;59.60;27.05;;;;;;;;;;2079636;28;20397;-84
2023/12/06 01:35:00;;;;;;;60.17;27.52;;;;;;;;;;2082121;28;20029;-83
2023/12/06 01:36:21;;;;;;;57.08;26.80;;;;;;;;;;2084130;28;20029;-84
2023/12/06 01:37:42;;;;;;;59.35;28.08;;;;;;;;;;2088685;28;20067;-83
2023/12/06 01:39:03;;;;;;;57.38;26.35;;;;;;;;;;2074873;28;20539;-84
2023/12/06 01:40:24;;;;;;;53.42;26.80;;;;;;;;;;2081225;28;20420;-83
2023/12/06 01:41:51;;;;;;;53.63;26.13;;;;;;;;;;2076190;28;20064;-84
2023/12/06 01:43:12;;;;;;;55.40;27.63;;;;;;;;;;2078552;28;20028;-84
2023/12/06 01:44:33;;;;;;;51.05;26.30;;;;;;;;;;2081010;28;20037;-84
2023/12/06 01:45:54;;;;;;;55.30;25.33;;;;;;;;;;2080252;28;20040;-84
2023/12/06 01:47:16;;;;;;;57.33;27.77;;;;;;;;;;2080931;28;20029;-84
2023/12/06 01:48:37;;;;;;;56.63;27.75;;;;;;;;;;2081309;28;20087;-84
2023/12/06 01:49:59;;;;;;;55.47;26.15;;;;;;;;;;2080138;28;20029;-84
2023/12/06 01:51:20;;;;;;;60.80;26.45;;;;;;;;;;2080466;28;20045;-84
2023/12/06 01:52:41;;;;;;;56.47;25.25;;;;;;;;;;2080441;28;20025;-84
2023/12/06 01:54:02;;;;;;;62.10;27.15;;;;;;;;;;2076308;28;20033;-84
2023/12/06 01:55:24;;;;;;;53.85;27.38;;;;;;;;;;2075329;28;20033;-83
2023/12/06 01:56:45;;;;;;;65.03;28.60;;;;;;;;;;2080630;28;20033;-85
2023/12/06 01:58:06;;;;;;;56.97;27.50;;;;;;;;;;2080066;28;20458;-84
2023/12/06 01:59:27;;;;;;;50.88;26.45;;;;;;;;;;2075027;28;20030;-84
2023/12/06 02:00:48;;;;;;;56.35;26.42;;;;;;;;;;2070560;28;20027;-84
2023/12/06 02:02:09;;;;;;;55.05;27.42;;;;;;;;;;2072916;28;20037;-84
2023/12/06 02:03:34;;;;;;;55.80;27.63;;;;;;;;;;2072848;28;20105;-84
2023/12/06 02:04:55;;;;;;;52.92;26.70;;;;;;;;;;2072488;28;20022;-84
2023/12/06 02:06:16;;;;;;;49.13;24.80;;;;;;;;;;2081368;28;20059;-84
2023/12/06 02:07:38;;;;;;;54.78;27.33;;;;;;;;;;2089617;28;20454;-84
2023/12/06 02:08:59;;;;;;;55.50;27.80;;;;;;;;;;2071922;28;20504;-84
2023/12/06 02:10:21;;;;;;;58.60;27.83;;;;;;;;;;2073793;28;20034;-83
2023/12/06 02:11:43;;;;;;;53.35;27.08;;;;;;;;;;2074701;28;20041;-83
2023/12/06 02:13:03;;;;;;;52.17;26.83;;;;;;;;;;2072669;28;20026;-84
2023/12/06 02:14:24;;;;;;;53.95;26.98;;;;;;;;;;2074544;28;20026;-84
2023/12/06 02:15:46;;;;;;;54.67;27.98;;;;;;;;;;2074570;28;20465;-85
2023/12/06 02:17:07;;;;;;;52.67;26.63;;;;;;;;;;2072166;28;20038;-84
2023/12/06 02:18:29;;;;;;;49.88;27.88;;;;;;;;;;2079164;28;20037;-83
2023/12/06 02:19:50;;;;;;;47.28;26.23;;;;;;;;;;2096880;28;20503;-84
2023/12/06 02:21:11;;;;;;;47.95;26.08;;;;;;;;;;2088732;28;20052;-84
2023/12/06 02:22:32;;;;;;;49.90;25.58;;;;;;;;;;2089282;28;20177;-84
2023/12/06 02:23:54;;;;;;;53.22;26.80;;;;;;;;;;2089182;28;20055;-84
2023/12/06 02:25:16;;;;;;;52.38;26.50;;;;;;;;;;2087660;28;20512;-85
2023/12/06 02:26:37;;;;;;;48.88;25.65;;;;;;;;;;2080851;28;20034;-84
2023/12/06 02:27:58;;;;;;;52.63;26.98;;;;;;;;;;2081679;28;20353;-84
2023/12/06 02:29:19;;;;;;;56.35;28.58;;;;;;;;;;2079466;28;20037;-83
2023/12/06 02:30:40;;;;;;;50.70;26.10;;;;;;;;;;2073897;28;20431;-85
2023/12/06 02:32:01;;;;;;;45.53;25.83;;;;;;;;;;2074503;28;20328;-84
2023/12/06 02:33:23;;;;;;;48.00;24.73;;;;;;;;;;2073916;28;20029;-84
2023/12/06 02:34:46;;;;;;;51.83;25.95;;;;;;;;;;2074760;28;20030;-84
2023/12/06 02:36:08;;;;;;;56.65;27.63;;;;;;;;;;2072546;28;20038;-84
2023/12/06 02:37:29;;;;;;;51.03;26.27;;;;;;;;;;2073747;28;20026;-84
2023/12/06 02:38:50;;;;;;;45.90;24.48;;;;;;;;;;2070752;28;20034;-84
2023/12/06 02:40:12;;;;;;;54.75;27.73;;;;;;;;;;2081810;28;20028;-84
2023/12/06 02:41:33;;;;;;;44.15;24.02;;;;;;;;;;2073743;28;20117;-84
2023/12/06 02:42:54;;;;;;;47.67;26.52;;;;;;;;;;2072652;28;20034;-84
2023/12/06 02:44:15;;;;;;;46.28;23.27;;;;;;;;;;2078042;28;20056;-84
2023/12/06 02:45:35;;;;;;;45.78;25.00;;;;;;;;;;2073973;28;20030;-84
2023/12/06 02:46:56;;;;;;;51.92;26.88;;;;;;;;;;2079351;28;20025;-84
2023/12/06 02:48:17;;;;;;;47.72;25.70;;;;;;;;;;2081403;28;20029;-84
2023/12/06 02:49:38;;;;;;;48.65;25.70;;;;;;;;;;2087532;28;20029;-84
2023/12/06 02:50:59;;;;;;;45.30;24.27;;;;;;;;;;2071838;28;20030;-84
2023/12/06 02:52:20;;;;;;;46.83;24.60;;;;;;;;;;2075974;28;20493;-84
2023/12/06 02:53:41;;;;;;;48.13;24.65;;;;;;;;;;2080884;28;20129;-84
2023/12/06 02:55:02;;;;;;;49.92;23.05;;;;;;;;;;2072504;28;20026;-84
2023/12/06 02:56:23;;;;;;;44.67;24.17;;;;;;;;;;2078733;28;20085;-84
2023/12/06 02:57:44;;;;;;;46.40;23.98;;;;;;;;;;2072351;28;20387;-85
2023/12/06 02:59:05;;;;;;;50.33;26.30;;;;;;;;;;2073886;28;20033;-83
2023/12/06 03:00:26;;;;;;;41.75;23.83;;;;;;;;;;2078961;28;20026;-85
2023/12/06 03:01:47;;;;;;;45.75;25.00;;;;;;;;;;2077879;28;20044;-84
2023/12/06 03:03:08;;;;;;;56.97;26.15;;;;;;;;;;2074055;28;20588;-84
2023/12/06 03:04:29;;;;;;;44.47;23.83;;;;;;;;;;2073897;28;20026;-84
2023/12/06 03:05:50;;;;;;;43.67;24.70;;;;;;;;;;2075047;28;20030;-84
2023/12/06 03:07:12;;;;;;;47.00;24.48;;;;;;;;;;2074115;28;20425;-85
2023/12/06 03:08:33;;;;;;;55.53;26.65;;;;;;;;;;2074466;28;20041;-84
2023/12/06 03:09:53;;;;;;;52.58;26.65;;;;;;;;;;2077872;28;20028;-85
2023/12/06 03:11:14;;;;;;;49.15;24.73;;;;;;;;;;2079039;28;20037;-83
2023/12/06 03:12:35;;;;;;;44.65;23.52;;;;;;;;;;2073206;28;20034;-84
2023/12/06 03:13:56;;;;;;;46.78;24.55;;;;;;;;;;2089289;28;20025;-85
2023/12/06 03:15:17;;;;;;;46.30;25.13;;;;;;;;;;2090384;28;20723;-85
2023/12/06 03:16:38;;;;;;;43.65;24.85;;;;;;;;;;2091664;28;20039;-84
2023/12/06 03:17:59;;;;;;;50.13;24.50;;;;;;;;;;2089693;28;20045;-84
2023/12/06 03:19:20;;;;;;;41.33;23.77;;;;;;;;;;2072565;28;20425;-83
2023/12/06 03:20:41;;;;;;;47.03;23.38;;;;;;;;;;2078892;28;20088;-84
2023/12/06 03:22:02;;;;;;;50.00;25.77;;;;;;;;;;2071003;28;20058;-85
2023/12/06 03:23:23;;;;;;;49.67;26.23;;;;;;;;;;2079744;28;20561;-84
2023/12/06 03:24:44;;;;;;;45.60;24.95;;;;;;;;;;2075396;28;20501;-84
2023/12/06 03:26:07;;;;;;;45.53;25.02;;;;;;;;;;2080812;28;20040;-84
2023/12/06 03:27:28;;;;;;;39.17;23.85;;;;;;;;;;2081616;28;20026;-84
2023/12/06 03:28:49;;;;;;;46.38;25.98;;;;;;;;;;2081153;28;20520;-84
2023/12/06 03:30:10;;;;;;;46.13;23.45;;;;;;;;;;2079558;28;20030;-84
2023/12/06 03:31:31;;;;;;;50.22;26.50;;;;;;;;;;2072740;28;20045;-84
2023/12/06 03:32:51;;;;;;;42.25;22.92;;;;;;;;;;2075189;28;20096;-84
2023/12/06 03:34:12;;;;;;;46.10;25.20;;;;;;;;;;2080711;28;20029;-83
2023/12/06 03:35:33;;;;;;;45.28;23.30;;;;;;;;;;2093724;28;20399;-84
2023/12/06 03:36:54;;;;;;;51.00;27.48;;;;;;;;;;2086487;28;20029;-84
2023/12/06 03:38:15;;;;;;;44.80;25.00;;;;;;;;;;2071285;28;20033;-84
2023/12/06 03:39:36;;;;;;;47.17;25.70;;;;;;;;;;2072579;28;20494;-84
2023/12/06 03:40:58;;;;;;;40.92;22.42;;;;;;;;;;2073866;28;20034;-84
2023/12/06 03:42:19;;;;;;;42.67;24.65;;;;;;;;;;2082211;28;20037;-84
2023/12/06 03:43:40;;;;;;;43.15;25.00;;;;;;;;;;2080233;28;20116;-84
2023/12/06 03:45:01;;;;;;;46.80;23.95;;;;;;;;;;2077973;28;20398;-84
2023/12/06 03:46:22;;;;;;;49.88;24.95;;;;;;;;;;2072128;28;20021;-84
2023/12/06 03:47:43;;;;;;;44.97;24.25;;;;;;;;;;2078802;28;20045;-84
2023/12/06 03:49:04;;;;;;;42.58;23.75;;;;;;;;;;2078544;28;20029;-84
2023/12/06 03:50:25;;;;;;;45.25;24.27;;;;;;;;;;2081390;28;20022;-84
2023/12/06 03:51:45;;;;;;;43.78;23.88;;;;;;;;;;2080524;28;20107;-84
2023/12/06 03:53:08;;;;;;;42.92;24.67;;;;;;;;;;2074910;28;20044;-84
2023/12/06 03:54:29;;;;;;;42.70;21.92;;;;;;;;;;2071353;28;20041;-84
2023/12/06 03:55:50;;;;;;;40.22;23.58;;;;;;;;;;2083023;28;20044;-84
2023/12/06 03:57:12;;;;;;;43.65;23.50;;;;;;;;;;2077328;28;20045;-84
2023/12/06 03:58:34;;;;;;;41.90;24.05;;;;;;;;;;2078476;28;20119;-84
2023/12/06 03:59:56;;;;;;;43.50;24.00;;;;;;;;;;2074428;28;20030;-84
2023/12/06 04:01:17;;;;;;;43.20;24.58;;;;;;;;;;2073914;28;20035;-84
2023/12/06 04:02:38;;;;;;;41.15;23.70;;;;;;;;;;2070097;28;20097;-84
2023/12/06 04:03:59;;;;;;;46.40;25.17;;;;;;;;;;2073022;28;20817;-84
2023/12/06 04:05:21;;;;;;;41.70;24.30;;;;;;;;;;2072757;28;20026;-84
2023/12/06 04:06:41;;;;;;;44.47;24.05;;;;;;;;;;2073891;28;20038;-84
2023/12/06 04:08:02;;;;;;;41.85;23.00;;;;;;;;;;2071012;28;20022;-83
2023/12/06 04:09:23;;;;;;;42.22;24.30;;;;;;;;;;2074628;28;20034;-84
2023/12/06 04:10:44;;;;;;;39.30;23.25;;;;;;;;;;2082099;28;20022;-84
2023/12/06 04:12:05;;;;;;;43.50;23.13;;;;;;;;;;2080219;28;20042;-84
2023/12/06 04:13:26;;;;;;;42.75;24.40;;;;;;;;;;2084780;28;20133;-84
2023/12/06 04:14:47;;;;;;;40.17;22.73;;;;;;;;;;2089956;28;20029;-82
2023/12/06 04:16:08;;;;;;;42.45;24.90;;;;;;;;;;2091499;28;20068;-82
2023/12/06 04:17:29;;;;;;;43.20;22.20;;;;;;;;;;2089539;28;20153;-84
2023/12/06 04:18:50;;;;;;;38.28;22.30;;;;;;;;;;2072387;28;20034;-84
2023/12/06 04:20:12;;;;;;;40.03;23.38;;;;;;;;;;2070779;28;20053;-84
2023/12/06 04:21:33;;;;;;;;;;;;;;;;;;2073871;28;20030;-83
2023/12/06 04:22:54;;;;;;;39.67;23.13;;;;;;;;;;2069182;28;19925;-84
2023/12/06 04:24:15;;;;;;;42.83;23.15;;;;;;;;;;2076557;28;20029;-84
2023/12/06 04:25:37;;;;;;;39.50;21.95;;;;;;;;;;2075533;28;20559;-84
2023/12/06 04:26:57;;;;;;;37.22;21.95;;;;;;;;;;2068626;28;20033;-84
2023/12/06 04:28:18;;;;;;;38.35;22.25;;;;;;;;;;2062124;28;20038;-83
2023/12/06 04:29:39;;;;;;;39.75;22.67;;;;;;;;;;2065834;28;20023;-84
2023/12/06 04:31:00;;;;;;;38.30;22.33;;;;;;;;;;2064714;28;20041;-84
2023/12/06 04:32:21;;;;;;;42.15;23.35;;;;;;;;;;2061063;28;20062;-83
2023/12/06 04:33:42;;;;;;;43.85;22.98;;;;;;;;;;2075523;28;20029;-84
2023/12/06 04:35:03;;;;;;;38.95;22.73;;;;;;;;;;2079879;28;20037;-84
2023/12/06 04:36:24;;;;;;;39.05;22.65;;;;;;;;;;2072513;28;20041;-83
2023/12/06 04:37:45;;;;;;;39.10;21.08;;;;;;;;;;2078224;28;20022;-84
2023/12/06 04:39:05;;;;;;;38.55;21.80;;;;;;;;;;2081830;28;20095;-84
2023/12/06 04:40:26;;;;;;;39.40;22.65;;;;;;;;;;2072117;28;20030;-84
2023/12/06 04:41:47;;;;;;;41.58;24.10;;;;;;;;;;2078995;28;20108;-84
2023/12/06 04:43:08;;;;;;;38.17;23.63;;;;;;;;;;2072962;28;20032;-84
2023/12/06 04:44:29;;;;;;;39.25;23.58;;;;;;;;;;2072910;28;20073;-84
2023/12/06 04:45:50;;;;;;;40.72;23.35;;;;;;;;;;2063789;28;20502;-84
2023/12/06 04:47:11;;;;;;;41.20;22.88;;;;;;;;;;2062695;28;20085;-84
2023/12/06 04:48:32;;;;;;;38.90;22.02;;;;;;;;;;2072473;28;20025;-84
2023/12/06 04:49:53;;;;;;;35.90;21.70;;;;;;;;;;2078833;28;20041;-84
2023/12/06 04:51:15;;;;;;;41.28;22.70;;;;;;;;;;2079163;28;20034;-84
2023/12/06 04:52:36;;;;;;;34.50;21.33;;;;;;;;;;2073025;28;20045;-84
2023/12/06 04:53:57;;;;;;;34.03;21.38;;;;;;;;;;2069263;28;20410;-84
2023/12/06 04:55:18;;;;;;;38.90;22.17;;;;;;;;;;2066485;28;20030;-84
2023/12/06 04:56:38;;;;;;;34.58;21.60;;;;;;;;;;2072710;28;20041;-84
2023/12/06 04:57:59;;;;;;;42.60;23.20;;;;;;;;;;2079124;28;20041;-84
2023/12/06 04:59:20;;;;;;;39.65;23.27;;;;;;;;;;2071649;28;20034;-84
2023/12/06 05:00:43;;;;;;;35.75;22.25;;;;;;;;;;2068891;28;20034;-84
2023/12/06 05:02:04;;;;;;;38.53;22.52;;;;;;;;;;2069110;28;20041;-85
2023/12/06 05:03:25;;;;;;;34.58;21.63;;;;;;;;;;2064762;28;20387;-84
2023/12/06 05:04:46;;;;;;;37.88;21.83;;;;;;;;;;2061735;28;20030;-84
2023/12/06 05:06:07;;;;;;;35.42;20.80;;;;;;;;;;2062195;28;20041;-83
2023/12/06 05:07:27;;;;;;;36.70;21.95;;;;;;;;;;2065188;28;20030;-84
2023/12/06 05:08:48;;;;;;;35.42;20.90;;;;;;;;;;2061417;28;20038;-84
2023/12/06 05:10:09;;;;;;;33.40;21.25;;;;;;;;;;2062566;28;20035;-82
2023/12/06 05:11:30;;;;;;;40.45;23.05;;;;;;;;;;2064686;28;20033;-84
2023/12/06 05:12:51;;;;;;;37.92;21.92;;;;;;;;;;2065294;28;20443;-83
2023/12/06 05:14:13;;;;;;;35.00;21.23;;;;;;;;;;2071547;28;20026;-83
2023/12/06 05:15:34;;;;;;;28.60;20.13;;;;;;;;;;2071879;28;20026;-86
2023/12/06 05:16:55;;;;;;;36.15;20.95;;;;;;;;;;2070061;28;20034;-85
2023/12/06 05:18:16;;;;;;;31.85;21.15;;;;;;;;;;2072799;28;20038;-83
2023/12/06 05:19:37;;;;;;;33.13;21.75;;;;;;;;;;2076585;28;20033;-84
2023/12/06 05:20:57;;;;;;;34.30;21.10;;;;;;;;;;2083722;28;20033;-83
2023/12/06 05:22:18;;;;;;;36.95;20.90;;;;;;;;;;2079345;28;20041;-83
2023/12/06 05:23:39;;;;;;;41.63;23.80;;;;;;;;;;2081562;28;20056;-83
2023/12/06 05:25:00;;;;;;;42.50;23.15;;;;;;;;;;2080454;28;20032;-83
2023/12/06 05:26:24;;;;;;;33.28;20.52;;;;;;;;;;2071085;28;20041;-83
2023/12/06 05:27:45;;;;;;;35.42;21.45;;;;;;;;;;2070005;28;20030;-83
2023/12/06 05:29:06;;;;;;;36.85;22.05;;;;;;;;;;2070434;28;20145;-83
2023/12/06 05:30:26;;;;;;;36.65;21.27;;;;;;;;;;2070141;28;20088;-83
2023/12/06 05:31:47;;;;;;;33.95;20.88;;;;;;;;;;2072697;28;20410;-83
2023/12/06 05:33:08;;;;;;;34.22;21.25;;;;;;;;;;2079248;28;20068;-83
2023/12/06 05:34:29;;;;;;;38.40;23.20;;;;;;;;;;2089071;28;20041;-83
2023/12/06 05:35:50;;;;;;;36.90;21.60;;;;;;;;;;2079862;28;20501;-83
2023/12/06 05:37:11;;;;;;;37.08;21.17;;;;;;;;;;2078949;28;20033;-83
2023/12/06 05:38:32;;;;;;;36.35;21.50;;;;;;;;;;2077607;28;20029;-83
2023/12/06 05:39:53;;;;;;;36.38;21.48;;;;;;;;;;2070993;28;20129;-84
2023/12/06 05:41:14;;;;;;;31.98;21.23;;;;;;;;;;2071206;28;20030;-84
2023/12/06 05:42:35;;;;;;;41.50;21.98;;;;;;;;;;2071533;28;20034;-83
2023/12/06 05:43:56;;;;;;;35.85;22.10;;;;;;;;;;2072772;28;20026;-83
2023/12/06 05:45:17;;;;;;;36.15;20.75;;;;;;;;;;2079210;28;20540;-82
2023/12/06 05:46:38;;;;;;;37.75;21.63;;;;;;;;;;2075297;28;20042;-83
2023/12/06 05:47:59;;;;;;;33.67;20.98;;;;;;;;;;2082505;28;20495;-84
2023/12/06 05:49:20;;;;;;;35.55;20.02;;;;;;;;;;2084979;28;20037;-83
2023/12/06 05:50:41;;;;;;;32.92;21.38;;;;;;;;;;2078339;28;20025;-82
2023/12/06 05:52:02;;;;;;;37.08;20.52;;;;;;;;;;2074976;28;20038;-83
2023/12/06 05:53:23;;;;;;;32.10;19.25;;;;;;;;;;2079838;28;20038;-83
2023/12/06 05:54:44;;;;;;;38.80;20.50;;;;;;;;;;2080074;28;20029;-83
2023/12/06 05:56:05;;;;;;;30.95;20.25;;;;;;;;;;2079511;28;20456;-83
2023/12/06 05:57:26;;;;;;;33.72;19.80;;;;;;;;;;2079493;28;20088;-84
2023/12/06 05:58:47;;;;;;;34.05;20.45;;;;;;;;;;2078740;28;20029;-83
2023/12/06 06:00:12;;;;;;;38.17;21.77;;;;;;;;;;2079877;28;20030;-83
2023/12/06 06:01:33;;;;;;;38.20;21.92;;;;;;;;;;2081538;28;20030;-83
2023/12/06 06:02:55;;;;;;;32.17;20.30;;;;;;;;;;2081749;28;20025;-83
2023/12/06 06:04:16;;;;;;;41.88;21.33;;;;;;;;;;2081929;28;20025;-83
2023/12/06 06:05:37;;;;;;;36.78;21.77;;;;;;;;;;2082476;28;20546;-83
2023/12/06 06:06:58;;;;;;;36.15;22.75;;;;;;;;;;2079145;28;20064;-83
2023/12/06 06:08:19;;;;;;;33.22;20.65;;;;;;;;;;2071366;28;20026;-83
2023/12/06 06:09:40;;;;;;;38.35;22.58;;;;;;;;;;2074864;28;20029;-83
2023/12/06 06:11:01;;;;;;;37.28;22.08;;;;;;;;;;2074185;28;20536;-83
2023/12/06 06:12:22;;;;;;;38.60;21.48;;;;;;;;;;2073259;28;20041;-85
2023/12/06 06:13:43;;;;;;;36.38;20.73;;;;;;;;;;2079046;28;20033;-83
2023/12/06 06:15:05;;;;;;;34.05;20.70;;;;;;;;;;2080088;28;20048;-83
2023/12/06 06:16:26;;;;;;;34.58;21.00;;;;;;;;;;2079728;28;20468;-84
2023/12/06 06:17:47;;;;;;;43.20;22.10;;;;;;;;;;2078888;28;20079;-83
2023/12/06 06:19:08;;;;;;;37.15;20.83;;;;;;;;;;2081854;28;20504;-83
2023/12/06 06:20:28;;;;;;;42.47;21.45;;;;;;;;;;2073599;28;20137;-84
2023/12/06 06:21:49;;;;;;;31.88;20.83;;;;;;;;;;2065808;28;20134;-83
2023/12/06 06:23:11;;;;;;;35.15;21.77;;;;;;;;;;2068906;28;20057;-84
2023/12/06 06:24:31;;;;;;;39.73;22.30;;;;;;;;;;2065565;28;20050;-84
2023/12/06 06:25:52;;;;;;;32.08;20.25;;;;;;;;;;2068771;28;20480;-83
2023/12/06 06:27:13;;;;;;;35.60;21.83;;;;;;;;;;2081149;28;20052;-86
2023/12/06 06:28:34;;;;;;;37.67;21.08;;;;;;;;;;2074396;28;20030;-84
2023/12/06 06:29:55;;;;;;;35.58;21.20;;;;;;;;;;2071536;28;20096;-83
2023/12/06 06:31:16;;;;;;;35.03;21.35;;;;;;;;;;2070507;28;20034;-85
2023/12/06 06:32:37;;;;;;;32.75;20.67;;;;;;;;;;2067277;28;20097;-84
2023/12/06 06:34:01;;;;;;;39.38;20.60;;;;;;;;;;2070592;28;20033;-83
2023/12/06 06:35:22;;;;;;;37.78;22.42;;;;;;;;;;2070772;28;20034;-87
2023/12/06 06:36:43;;;;;;;36.33;21.48;;;;;;;;;;2070339;28;20120;-84
2023/12/06 06:38:04;;;;;;;34.33;21.95;;;;;;;;;;2069231;28;20449;-83
2023/12/06 06:39:28;;;;;;;34.75;20.05;;;;;;;;;;2069474;28;20482;-83
2023/12/06 06:40:49;;;;;;;36.55;20.48;;;;;;;;;;2071753;28;20034;-84
2023/12/06 06:42:09;;;;;;;31.52;19.90;;;;;;;;;;2072461;28;20457;-83
2023/12/06 06:43:30;;;;;;;36.22;22.30;;;;;;;;;;2071240;28;20050;-83
2023/12/06 06:44:51;;;;;;;41.80;22.73;;;;;;;;;;2067351;28;20037;-84
2023/12/06 06:46:13;;;;;;;41.13;19.83;;;;;;;;;;2073193;28;20030;-84
2023/12/06 06:47:37;;;;;;;32.88;20.27;;;;;;;;;;2067242;28;20033;-84
2023/12/06 06:48:58;;;;;;;37.42;21.48;;;;;;;;;;2068590;28;21252;-84
2023/12/06 06:50:18;;;;;;;36.70;21.40;;;;;;;;;;2070560;28;20505;-83
2023/12/06 06:51:40;;;;;;;31.25;19.88;;;;;;;;;;2072394;28;20037;-84
2023/12/06 06:53:01;;;;;;;35.90;20.48;;;;;;;;;;2072030;28;20042;-83
2023/12/06 06:54:23;;;;;;;39.17;20.38;;;;;;;;;;2071498;28;20130;-84
2023/12/06 06:55:44;;;;;;;31.15;18.95;;;;;;;;;;2070411;28;20033;-82
2023/12/06 06:57:05;;;;;;;37.47;21.55;;;;;;;;;;2078081;28;20374;-82
2023/12/06 06:58:26;;;;;;;34.75;20.08;;;;;;;;;;2073201;28;20029;-84
2023/12/06 06:59:47;;;;;;;33.50;18.67;;;;;;;;;;2074976;28;20030;-83
2023/12/06 07:01:08;;;;;;;32.83;20.65;;;;;;;;;;2070472;28;20045;-84
2023/12/06 07:02:29;;;;;;;31.40;20.55;;;;;;;;;;2070099;28;20383;-84
2023/12/06 07:03:50;;;;;;;35.97;21.02;;;;;;;;;;2073225;28;20030;-84
2023/12/06 07:05:14;;;;;;;31.10;20.10;;;;;;;;;;2072851;28;20045;-84
2023/12/06 07:06:34;;;;;;;37.67;21.45;;;;;;;;;;2072636;28;20037;-84
2023/12/06 07:07:55;;;;;;;32.58;18.90;;;;;;;;;;2072669;28;20033;-83
2023/12/06 07:09:17;;;;;;;32.85;20.67;;;;;;;;;;2078761;28;20026;-84
2023/12/06 07:10:38;;;;;;;30.00;19.70;;;;;;;;;;2075536;28;20396;-79
2023/12/06 07:11:59;;;;;;;34.88;19.73;;;;;;;;;;2079508;28;20362;-81
2023/12/06 07:13:22;;;;;;;31.05;19.17;;;;;;;;;;2071126;28;20042;-79
2023/12/06 07:14:43;;;;;;;31.17;19.60;;;;;;;;;;2069452;28;20069;-80
2023/12/06 07:16:04;;;;;;;32.30;20.75;;;;;;;;;;2070192;28;20022;-80
2023/12/06 07:17:25;;;;;;;31.98;19.95;;;;;;;;;;2070249;28;20084;-80
2023/12/06 07:18:46;;;;;;;34.95;20.13;;;;;;;;;;2061662;28;20132;-80
2023/12/06 07:20:08;;;;;;;36.90;21.17;;;;;;;;;;2081861;28;20504;-80
2023/12/06 07:21:29;;;;;;;32.28;19.75;;;;;;;;;;2073084;28;20030;-80
2023/12/06 07:22:50;;;;;;;34.85;19.02;;;;;;;;;;2069869;28;20422;-80
2023/12/06 07:24:11;;;;;;;29.42;19.70;;;;;;;;;;2070684;28;20042;-80
2023/12/06 07:25:32;;;;;;;31.17;19.73;;;;;;;;;;2077168;28;20026;-80
2023/12/06 07:26:53;;;;;;;35.10;20.70;;;;;;;;;;2080855;28;20032;-80
2023/12/06 07:28:20;;;;;;;29.33;19.60;;;;;;;;;;2077344;28;20041;-80
2023/12/06 07:29:44;;;;;;;33.63;20.50;;;;;;;;;;2078925;28;20079;-80
2023/12/06 07:31:05;;;;;;;34.22;19.05;;;;;;;;;;2062845;28;20045;-79
2023/12/06 07:32:26;;;;;;;35.57;20.07;;;;;;;;;;2069251;28;20434;-80
2023/12/06 07:33:50;;;;;;;37.22;20.35;;;;;;;;;;2085666;28;20044;-79
2023/12/06 07:35:12;;;;;;;34.40;19.85;;;;;;;;;;2086852;28;20036;-79
2023/12/06 07:36:33;;;;;;;31.75;19.25;;;;;;;;;;2090222;28;20044;-79
2023/12/06 07:37:54;;;;;;;35.88;19.80;;;;;;;;;;2089714;28;20026;-79
2023/12/06 07:39:15;;;;;;;38.25;19.52;;;;;;;;;;2087617;28;20026;-79
2023/12/06 07:40:36;;;;;;;35.30;20.23;;;;;;;;;;2088445;28;20432;-78
2023/12/06 07:41:56;;;;;;;34.95;19.27;;;;;;;;;;2082746;28;20132;-79
2023/12/06 07:43:17;;;;;;;38.40;20.05;;;;;;;;;;2080275;28;20041;-79
2023/12/06 07:44:38;;;;;;;35.67;19.95;;;;;;;;;;2078815;28;20507;-79
2023/12/06 07:45:59;;;;;;;32.17;20.52;;;;;;;;;;2083282;28;20041;-80
2023/12/06 07:47:20;;;;;;;34.92;19.65;;;;;;;;;;2082140;28;20044;-79
2023/12/06 07:48:41;;;;;;;32.17;18.42;;;;;;;;;;2088555;28;20091;-79
2023/12/06 07:50:02;;;;;;;34.78;20.88;;;;;;;;;;2088187;28;20033;-79
2023/12/06 07:51:23;;;;;;;31.25;19.45;;;;;;;;;;2084759;28;20026;-79
2023/12/06 07:52:44;;;;;;;34.80;20.02;;;;;;;;;;2077224;28;20030;-79